sensor_id;sensor_type;location;lat;lon;timestamp;P1;durP1;ratioP1;P2;durP2;ratioP2
32633;SDS011;19043;51.012;5.648;2022-10-31T00:01:25;19.35;;;12.07;;
32633;SDS011;19043;51.012;5.648;2022-10-31T00:03:51;20.45;;;13.45;;
32633;SDS011;19043;51.012;5.648;2022-10-31T00:06:16;17.85;;;12.88;;
32633;SDS011;19043;51.012;5.648;2022-10-31T00:08:51;24.90;;;12.98;;
32633;SDS011;19043;51.012;5.648;2022-10-31T00:11:16;18.80;;;11.57;;
32633;SDS011;19043;51.012;5.648;2022-10-31T00:13:42;19.43;;;13.30;;
32633;SDS011;19043;51.012;5.648;2022-10-31T00:16:12;18.90;;;13.17;;
32633;SDS011;19043;51.012;5.648;2022-10-31T00:18:38;27.67;;;14.10;;
32633;SDS011;19043;51.012;5.648;2022-10-31T00:21:03;17.80;;;13.97;;
32633;SDS011;19043;51.012;5.648;2022-10-31T00:23:28;17.63;;;12.63;;
32633;SDS011;19043;51.012;5.648;2022-10-31T00:25:54;21.38;;;13.52;;
32633;SDS011;19043;51.012;5.648;2022-10-31T00:28:19;21.40;;;14.05;;
32633;SDS011;19043;51.012;5.648;2022-10-31T00:30:44;19.57;;;14.83;;
32633;SDS011;19043;51.012;5.648;2022-10-31T00:33:09;30.93;;;14.93;;
32633;SDS011;19043;51.012;5.648;2022-10-31T00:35:34;19.63;;;13.87;;
32633;SDS011;19043;51.012;5.648;2022-10-31T00:38:00;23.88;;;15.00;;
32633;SDS011;19043;51.012;5.648;2022-10-31T00:40:25;21.65;;;14.82;;
32633;SDS011;19043;51.012;5.648;2022-10-31T00:42:50;29.67;;;17.13;;
32633;SDS011;19043;51.012;5.648;2022-10-31T00:45:15;21.97;;;15.23;;
32633;SDS011;19043;51.012;5.648;2022-10-31T00:47:41;24.70;;;16.50;;
32633;SDS011;19043;51.012;5.648;2022-10-31T00:50:06;19.02;;;14.50;;
32633;SDS011;19043;51.012;5.648;2022-10-31T00:52:32;21.30;;;14.65;;
32633;SDS011;19043;51.012;5.648;2022-10-31T00:54:57;23.30;;;16.10;;
32633;SDS011;19043;51.012;5.648;2022-10-31T00:57:22;24.17;;;15.43;;
32633;SDS011;19043;51.012;5.648;2022-10-31T00:59:48;27.00;;;14.05;;
32633;SDS011;19043;51.012;5.648;2022-10-31T01:02:13;17.57;;;13.80;;
32633;SDS011;19043;51.012;5.648;2022-10-31T01:04:38;29.03;;;14.77;;
32633;SDS011;19043;51.012;5.648;2022-10-31T01:07:03;20.45;;;15.27;;
32633;SDS011;19043;51.012;5.648;2022-10-31T01:09:28;23.15;;;15.95;;
32633;SDS011;19043;51.012;5.648;2022-10-31T01:11:54;23.33;;;17.67;;
32633;SDS011;19043;51.012;5.648;2022-10-31T01:14:19;28.03;;;17.60;;
32633;SDS011;19043;51.012;5.648;2022-10-31T01:16:44;20.85;;;16.30;;
32633;SDS011;19043;51.012;5.648;2022-10-31T01:19:09;26.73;;;15.88;;
32633;SDS011;19043;51.012;5.648;2022-10-31T01:21:35;19.33;;;16.47;;
32633;SDS011;19043;51.012;5.648;2022-10-31T01:24:00;25.77;;;16.65;;
32633;SDS011;19043;51.012;5.648;2022-10-31T01:26:29;22.45;;;16.13;;
32633;SDS011;19043;51.012;5.648;2022-10-31T01:28:59;24.88;;;16.38;;
32633;SDS011;19043;51.012;5.648;2022-10-31T01:31:26;29.02;;;16.35;;
32633;SDS011;19043;51.012;5.648;2022-10-31T01:33:51;24.75;;;15.90;;
32633;SDS011;19043;51.012;5.648;2022-10-31T01:36:18;20.80;;;15.65;;
32633;SDS011;19043;51.012;5.648;2022-10-31T01:38:44;24.65;;;16.55;;
32633;SDS011;19043;51.012;5.648;2022-10-31T01:41:11;35.35;;;16.73;;
32633;SDS011;19043;51.012;5.648;2022-10-31T01:43:44;24.58;;;16.95;;
32633;SDS011;19043;51.012;5.648;2022-10-31T01:46:09;24.85;;;15.32;;
32633;SDS011;19043;51.012;5.648;2022-10-31T01:48:35;30.58;;;17.00;;
32633;SDS011;19043;51.012;5.648;2022-10-31T01:51:00;20.30;;;16.67;;
32633;SDS011;19043;51.012;5.648;2022-10-31T01:53:28;22.55;;;16.75;;
32633;SDS011;19043;51.012;5.648;2022-10-31T01:55:53;39.50;;;17.48;;
32633;SDS011;19043;51.012;5.648;2022-10-31T01:58:19;23.73;;;16.58;;
32633;SDS011;19043;51.012;5.648;2022-10-31T02:00:48;29.88;;;17.63;;
32633;SDS011;19043;51.012;5.648;2022-10-31T02:03:14;25.48;;;16.63;;
32633;SDS011;19043;51.012;5.648;2022-10-31T02:05:40;25.38;;;19.45;;
32633;SDS011;19043;51.012;5.648;2022-10-31T02:10:32;30.87;;;17.60;;
32633;SDS011;19043;51.012;5.648;2022-10-31T02:12:57;28.50;;;17.83;;
32633;SDS011;19043;51.012;5.648;2022-10-31T02:15:23;22.98;;;17.63;;
32633;SDS011;19043;51.012;5.648;2022-10-31T02:17:48;20.65;;;15.98;;
32633;SDS011;19043;51.012;5.648;2022-10-31T02:20:20;23.67;;;17.02;;
32633;SDS011;19043;51.012;5.648;2022-10-31T02:25:35;24.53;;;18.17;;
32633;SDS011;19043;51.012;5.648;2022-10-31T02:28:13;22.30;;;17.20;;
32633;SDS011;19043;51.012;5.648;2022-10-31T02:36:04;31.17;;;17.77;;
32633;SDS011;19043;51.012;5.648;2022-10-31T02:46:07;28.02;;;18.02;;
32633;SDS011;19043;51.012;5.648;2022-10-31T02:48:36;25.73;;;17.05;;
32633;SDS011;19043;51.012;5.648;2022-10-31T02:51:03;22.23;;;17.90;;
32633;SDS011;19043;51.012;5.648;2022-10-31T02:53:35;23.48;;;17.42;;
32633;SDS011;19043;51.012;5.648;2022-10-31T02:56:05;29.27;;;18.08;;
32633;SDS011;19043;51.012;5.648;2022-10-31T02:58:32;24.17;;;16.98;;
32633;SDS011;19043;51.012;5.648;2022-10-31T03:03:25;22.70;;;15.80;;
32633;SDS011;19043;51.012;5.648;2022-10-31T03:05:55;21.95;;;17.10;;
32633;SDS011;19043;51.012;5.648;2022-10-31T03:08:43;25.85;;;17.67;;
32633;SDS011;19043;51.012;5.648;2022-10-31T03:11:12;29.63;;;16.60;;
32633;SDS011;19043;51.012;5.648;2022-10-31T03:13:43;30.67;;;18.48;;
32633;SDS011;19043;51.012;5.648;2022-10-31T03:18:39;27.90;;;19.97;;
32633;SDS011;19043;51.012;5.648;2022-10-31T03:21:10;27.80;;;21.38;;
32633;SDS011;19043;51.012;5.648;2022-10-31T03:23:37;29.88;;;22.23;;
32633;SDS011;19043;51.012;5.648;2022-10-31T03:26:05;25.92;;;20.98;;
32633;SDS011;19043;51.012;5.648;2022-10-31T03:28:33;26.90;;;21.45;;
32633;SDS011;19043;51.012;5.648;2022-10-31T03:30:59;25.58;;;18.83;;
32633;SDS011;19043;51.012;5.648;2022-10-31T03:33:26;39.72;;;20.65;;
32633;SDS011;19043;51.012;5.648;2022-10-31T03:35:53;22.65;;;20.05;;
32633;SDS011;19043;51.012;5.648;2022-10-31T03:38:20;29.60;;;19.95;;
32633;SDS011;19043;51.012;5.648;2022-10-31T03:40:46;25.02;;;20.85;;
32633;SDS011;19043;51.012;5.648;2022-10-31T03:43:17;29.15;;;20.33;;
32633;SDS011;19043;51.012;5.648;2022-10-31T03:45:44;37.33;;;22.52;;
32633;SDS011;19043;51.012;5.648;2022-10-31T03:48:10;29.45;;;21.55;;
32633;SDS011;19043;51.012;5.648;2022-10-31T03:50:40;23.27;;;17.77;;
32633;SDS011;19043;51.012;5.648;2022-10-31T03:53:14;22.48;;;16.98;;
32633;SDS011;19043;51.012;5.648;2022-10-31T03:55:42;23.33;;;15.90;;
32633;SDS011;19043;51.012;5.648;2022-10-31T03:58:15;28.65;;;17.80;;
32633;SDS011;19043;51.012;5.648;2022-10-31T04:00:44;20.45;;;17.08;;
32633;SDS011;19043;51.012;5.648;2022-10-31T04:03:11;24.50;;;18.17;;
32633;SDS011;19043;51.012;5.648;2022-10-31T04:05:39;25.80;;;17.77;;
32633;SDS011;19043;51.012;5.648;2022-10-31T04:08:07;22.67;;;16.95;;
32633;SDS011;19043;51.012;5.648;2022-10-31T04:10:33;24.83;;;18.98;;
32633;SDS011;19043;51.012;5.648;2022-10-31T04:13:04;18.42;;;15.23;;
32633;SDS011;19043;51.012;5.648;2022-10-31T04:15:31;20.73;;;17.67;;
32633;SDS011;19043;51.012;5.648;2022-10-31T04:17:57;27.83;;;17.58;;
32633;SDS011;19043;51.012;5.648;2022-10-31T04:20:33;25.55;;;18.05;;
32633;SDS011;19043;51.012;5.648;2022-10-31T04:22:59;23.52;;;18.33;;
32633;SDS011;19043;51.012;5.648;2022-10-31T04:25:24;23.40;;;17.50;;
32633;SDS011;19043;51.012;5.648;2022-10-31T04:27:49;29.38;;;17.65;;
32633;SDS011;19043;51.012;5.648;2022-10-31T04:30:15;28.80;;;18.50;;
32633;SDS011;19043;51.012;5.648;2022-10-31T04:32:40;25.90;;;19.57;;
32633;SDS011;19043;51.012;5.648;2022-10-31T04:35:05;23.27;;;19.10;;
32633;SDS011;19043;51.012;5.648;2022-10-31T04:37:30;26.48;;;19.88;;
32633;SDS011;19043;51.012;5.648;2022-10-31T04:39:56;26.73;;;19.17;;
32633;SDS011;19043;51.012;5.648;2022-10-31T04:42:21;25.73;;;19.60;;
32633;SDS011;19043;51.012;5.648;2022-10-31T04:44:46;34.95;;;20.02;;
32633;SDS011;19043;51.012;5.648;2022-10-31T04:47:11;20.27;;;16.33;;
32633;SDS011;19043;51.012;5.648;2022-10-31T04:49:37;25.77;;;18.25;;
32633;SDS011;19043;51.012;5.648;2022-10-31T04:52:02;28.63;;;19.03;;
32633;SDS011;19043;51.012;5.648;2022-10-31T04:54:27;24.13;;;18.05;;
32633;SDS011;19043;51.012;5.648;2022-10-31T04:56:52;28.20;;;19.07;;
32633;SDS011;19043;51.012;5.648;2022-10-31T04:59:17;26.13;;;18.38;;
32633;SDS011;19043;51.012;5.648;2022-10-31T05:01:43;23.30;;;16.65;;
32633;SDS011;19043;51.012;5.648;2022-10-31T05:04:08;24.37;;;16.03;;
32633;SDS011;19043;51.012;5.648;2022-10-31T05:06:33;26.70;;;16.83;;
32633;SDS011;19043;51.012;5.648;2022-10-31T05:08:58;27.30;;;18.13;;
32633;SDS011;19043;51.012;5.648;2022-10-31T05:11:24;29.35;;;19.33;;
32633;SDS011;19043;51.012;5.648;2022-10-31T05:13:49;20.73;;;14.73;;
32633;SDS011;19043;51.012;5.648;2022-10-31T05:16:14;21.95;;;15.65;;
32633;SDS011;19043;51.012;5.648;2022-10-31T05:18:39;23.23;;;16.63;;
32633;SDS011;19043;51.012;5.648;2022-10-31T05:21:04;17.98;;;16.02;;
32633;SDS011;19043;51.012;5.648;2022-10-31T05:23:30;24.08;;;16.30;;
32633;SDS011;19043;51.012;5.648;2022-10-31T05:25:55;21.33;;;16.60;;
32633;SDS011;19043;51.012;5.648;2022-10-31T05:28:20;23.50;;;16.60;;
32633;SDS011;19043;51.012;5.648;2022-10-31T05:30:45;25.13;;;18.33;;
32633;SDS011;19043;51.012;5.648;2022-10-31T05:33:11;22.10;;;16.17;;
32633;SDS011;19043;51.012;5.648;2022-10-31T05:35:36;24.50;;;16.67;;
32633;SDS011;19043;51.012;5.648;2022-10-31T05:38:01;24.30;;;16.33;;
32633;SDS011;19043;51.012;5.648;2022-10-31T05:40:26;25.15;;;17.73;;
32633;SDS011;19043;51.012;5.648;2022-10-31T05:42:52;29.73;;;17.98;;
32633;SDS011;19043;51.012;5.648;2022-10-31T05:45:18;24.30;;;17.50;;
32633;SDS011;19043;51.012;5.648;2022-10-31T05:48:17;25.98;;;20.23;;
32633;SDS011;19043;51.012;5.648;2022-10-31T05:50:35;25.90;;;17.08;;
32633;SDS011;19043;51.012;5.648;2022-10-31T05:53:01;23.03;;;17.43;;
32633;SDS011;19043;51.012;5.648;2022-10-31T05:55:27;24.95;;;16.67;;
32633;SDS011;19043;51.012;5.648;2022-10-31T05:57:53;26.50;;;18.60;;
32633;SDS011;19043;51.012;5.648;2022-10-31T06:00:18;25.30;;;15.98;;
32633;SDS011;19043;51.012;5.648;2022-10-31T06:02:44;23.85;;;17.75;;
32633;SDS011;19043;51.012;5.648;2022-10-31T06:05:09;19.92;;;16.50;;
32633;SDS011;19043;51.012;5.648;2022-10-31T06:07:34;19.23;;;14.13;;
32633;SDS011;19043;51.012;5.648;2022-10-31T06:10:00;14.82;;;13.27;;
32633;SDS011;19043;51.012;5.648;2022-10-31T06:12:25;24.88;;;16.10;;
32633;SDS011;19043;51.012;5.648;2022-10-31T06:14:51;19.63;;;17.48;;
32633;SDS011;19043;51.012;5.648;2022-10-31T06:17:16;19.50;;;15.93;;
32633;SDS011;19043;51.012;5.648;2022-10-31T06:19:41;20.00;;;16.27;;
32633;SDS011;19043;51.012;5.648;2022-10-31T06:22:06;19.67;;;15.83;;
32633;SDS011;19043;51.012;5.648;2022-10-31T06:24:32;23.30;;;16.63;;
32633;SDS011;19043;51.012;5.648;2022-10-31T06:26:57;24.23;;;16.77;;
32633;SDS011;19043;51.012;5.648;2022-10-31T06:29:22;21.42;;;17.50;;
32633;SDS011;19043;51.012;5.648;2022-10-31T06:31:50;24.13;;;18.42;;
32633;SDS011;19043;51.012;5.648;2022-10-31T06:34:15;22.50;;;13.55;;
32633;SDS011;19043;51.012;5.648;2022-10-31T06:36:41;30.90;;;15.60;;
32633;SDS011;19043;51.012;5.648;2022-10-31T06:39:06;19.43;;;14.53;;
32633;SDS011;19043;51.012;5.648;2022-10-31T06:41:31;25.58;;;16.52;;
32633;SDS011;19043;51.012;5.648;2022-10-31T06:43:56;20.67;;;17.20;;
32633;SDS011;19043;51.012;5.648;2022-10-31T06:46:21;22.87;;;15.40;;
32633;SDS011;19043;51.012;5.648;2022-10-31T06:48:47;22.07;;;15.97;;
32633;SDS011;19043;51.012;5.648;2022-10-31T06:51:12;19.97;;;15.80;;
32633;SDS011;19043;51.012;5.648;2022-10-31T06:53:37;22.55;;;17.90;;
32633;SDS011;19043;51.012;5.648;2022-10-31T06:56:02;28.30;;;17.95;;
32633;SDS011;19043;51.012;5.648;2022-10-31T06:58:28;20.83;;;16.00;;
32633;SDS011;19043;51.012;5.648;2022-10-31T07:00:53;25.87;;;16.73;;
32633;SDS011;19043;51.012;5.648;2022-10-31T07:03:18;23.13;;;17.02;;
32633;SDS011;19043;51.012;5.648;2022-10-31T07:05:45;27.38;;;18.50;;
32633;SDS011;19043;51.012;5.648;2022-10-31T07:08:12;28.08;;;19.00;;
32633;SDS011;19043;51.012;5.648;2022-10-31T07:10:38;27.30;;;18.40;;
32633;SDS011;19043;51.012;5.648;2022-10-31T07:13:05;24.27;;;17.80;;
32633;SDS011;19043;51.012;5.648;2022-10-31T07:15:33;28.60;;;17.92;;
32633;SDS011;19043;51.012;5.648;2022-10-31T07:17:59;25.67;;;19.25;;
32633;SDS011;19043;51.012;5.648;2022-10-31T07:20:24;28.90;;;18.20;;
32633;SDS011;19043;51.012;5.648;2022-10-31T07:22:49;26.85;;;18.60;;
32633;SDS011;19043;51.012;5.648;2022-10-31T07:25:14;23.70;;;17.23;;
32633;SDS011;19043;51.012;5.648;2022-10-31T07:27:41;28.27;;;18.48;;
32633;SDS011;19043;51.012;5.648;2022-10-31T07:30:07;25.60;;;17.75;;
32633;SDS011;19043;51.012;5.648;2022-10-31T07:32:48;23.02;;;18.30;;
32633;SDS011;19043;51.012;5.648;2022-10-31T07:35:15;25.33;;;18.63;;
32633;SDS011;19043;51.012;5.648;2022-10-31T07:37:40;23.88;;;20.83;;
32633;SDS011;19043;51.012;5.648;2022-10-31T07:40:06;26.90;;;19.00;;
32633;SDS011;19043;51.012;5.648;2022-10-31T07:42:37;23.58;;;19.35;;
32633;SDS011;19043;51.012;5.648;2022-10-31T07:45:03;26.85;;;20.58;;
32633;SDS011;19043;51.012;5.648;2022-10-31T07:47:29;26.35;;;20.00;;
32633;SDS011;19043;51.012;5.648;2022-10-31T07:49:54;34.03;;;21.75;;
32633;SDS011;19043;51.012;5.648;2022-10-31T07:52:19;29.65;;;22.40;;
32633;SDS011;19043;51.012;5.648;2022-10-31T07:54:45;29.15;;;24.20;;
32633;SDS011;19043;51.012;5.648;2022-10-31T07:57:10;32.53;;;23.20;;
32633;SDS011;19043;51.012;5.648;2022-10-31T07:59:35;33.72;;;26.55;;
32633;SDS011;19043;51.012;5.648;2022-10-31T08:02:00;30.60;;;25.88;;
32633;SDS011;19043;51.012;5.648;2022-10-31T08:04:26;37.05;;;27.45;;
32633;SDS011;19043;51.012;5.648;2022-10-31T08:06:51;30.02;;;24.73;;
32633;SDS011;19043;51.012;5.648;2022-10-31T08:09:16;37.47;;;26.70;;
32633;SDS011;19043;51.012;5.648;2022-10-31T08:11:41;32.03;;;25.23;;
32633;SDS011;19043;51.012;5.648;2022-10-31T08:14:07;31.47;;;25.77;;
32633;SDS011;19043;51.012;5.648;2022-10-31T08:16:32;34.53;;;27.07;;
32633;SDS011;19043;51.012;5.648;2022-10-31T08:18:57;34.53;;;28.00;;
32633;SDS011;19043;51.012;5.648;2022-10-31T08:21:22;38.63;;;29.33;;
32633;SDS011;19043;51.012;5.648;2022-10-31T08:23:48;43.10;;;33.33;;
32633;SDS011;19043;51.012;5.648;2022-10-31T08:26:13;50.55;;;34.30;;
32633;SDS011;19043;51.012;5.648;2022-10-31T08:28:38;48.58;;;37.13;;
32633;SDS011;19043;51.012;5.648;2022-10-31T08:31:03;49.53;;;35.57;;
32633;SDS011;19043;51.012;5.648;2022-10-31T08:33:29;44.75;;;35.65;;
32633;SDS011;19043;51.012;5.648;2022-10-31T08:35:55;44.22;;;34.63;;
32633;SDS011;19043;51.012;5.648;2022-10-31T08:38:22;54.20;;;34.72;;
32633;SDS011;19043;51.012;5.648;2022-10-31T08:40:48;48.33;;;34.97;;
32633;SDS011;19043;51.012;5.648;2022-10-31T08:43:14;47.17;;;35.30;;
32633;SDS011;19043;51.012;5.648;2022-10-31T08:45:40;50.40;;;35.38;;
32633;SDS011;19043;51.012;5.648;2022-10-31T08:48:06;44.55;;;31.30;;
32633;SDS011;19043;51.012;5.648;2022-10-31T08:50:34;54.17;;;37.33;;
32633;SDS011;19043;51.012;5.648;2022-10-31T08:53:18;51.50;;;36.92;;
32633;SDS011;19043;51.012;5.648;2022-10-31T08:55:44;50.63;;;38.20;;
32633;SDS011;19043;51.012;5.648;2022-10-31T08:58:10;53.53;;;37.33;;
32633;SDS011;19043;51.012;5.648;2022-10-31T09:00:36;56.17;;;39.63;;
32633;SDS011;19043;51.012;5.648;2022-10-31T09:03:03;51.63;;;40.70;;
32633;SDS011;19043;51.012;5.648;2022-10-31T09:05:28;54.00;;;38.03;;
32633;SDS011;19043;51.012;5.648;2022-10-31T09:08:00;50.50;;;38.40;;
32633;SDS011;19043;51.012;5.648;2022-10-31T09:10:28;55.58;;;39.35;;
32633;SDS011;19043;51.012;5.648;2022-10-31T09:13:04;53.38;;;38.40;;
32633;SDS011;19043;51.012;5.648;2022-10-31T09:15:31;53.92;;;38.05;;
32633;SDS011;19043;51.012;5.648;2022-10-31T09:17:56;43.70;;;35.60;;
32633;SDS011;19043;51.012;5.648;2022-10-31T09:20:22;44.53;;;34.37;;
32633;SDS011;19043;51.012;5.648;2022-10-31T09:22:47;39.53;;;33.30;;
32633;SDS011;19043;51.012;5.648;2022-10-31T09:25:12;66.35;;;33.72;;
32633;SDS011;19043;51.012;5.648;2022-10-31T09:27:37;50.58;;;32.30;;
32633;SDS011;19043;51.012;5.648;2022-10-31T09:30:03;37.63;;;31.85;;
32633;SDS011;19043;51.012;5.648;2022-10-31T09:32:31;36.53;;;28.05;;
32633;SDS011;19043;51.012;5.648;2022-10-31T09:34:56;45.30;;;31.95;;
32633;SDS011;19043;51.012;5.648;2022-10-31T09:37:22;52.70;;;27.50;;
32633;SDS011;19043;51.012;5.648;2022-10-31T09:39:47;33.90;;;27.75;;
32633;SDS011;19043;51.012;5.648;2022-10-31T09:47:49;37.95;;;27.88;;
32633;SDS011;19043;51.012;5.648;2022-10-31T09:53:08;36.25;;;29.13;;
32633;SDS011;19043;51.012;5.648;2022-10-31T09:55:44;35.53;;;26.48;;
32633;SDS011;19043;51.012;5.648;2022-10-31T09:58:17;38.05;;;26.95;;
32633;SDS011;19043;51.012;5.648;2022-10-31T10:00:43;38.15;;;27.92;;
32633;SDS011;19043;51.012;5.648;2022-10-31T10:03:11;31.98;;;24.90;;
32633;SDS011;19043;51.012;5.648;2022-10-31T10:05:39;38.50;;;28.42;;
32633;SDS011;19043;51.012;5.648;2022-10-31T10:08:19;41.13;;;27.13;;
32633;SDS011;19043;51.012;5.648;2022-10-31T10:10:49;41.92;;;29.42;;
32633;SDS011;19043;51.012;5.648;2022-10-31T10:13:25;40.58;;;27.17;;
32633;SDS011;19043;51.012;5.648;2022-10-31T10:16:00;35.22;;;26.75;;
32633;SDS011;19043;51.012;5.648;2022-10-31T10:18:32;30.67;;;23.90;;
32633;SDS011;19043;51.012;5.648;2022-10-31T10:26:54;29.30;;;22.83;;
32633;SDS011;19043;51.012;5.648;2022-10-31T10:29:37;27.90;;;24.40;;
32633;SDS011;19043;51.012;5.648;2022-10-31T10:32:09;29.92;;;21.95;;
32633;SDS011;19043;51.012;5.648;2022-10-31T10:34:44;34.55;;;21.88;;
32633;SDS011;19043;51.012;5.648;2022-10-31T10:39:43;29.65;;;23.25;;
32633;SDS011;19043;51.012;5.648;2022-10-31T10:42:11;37.40;;;24.02;;
32633;SDS011;19043;51.012;5.648;2022-10-31T10:44:55;29.48;;;23.67;;
32633;SDS011;19043;51.012;5.648;2022-10-31T10:47:43;35.73;;;21.63;;
32633;SDS011;19043;51.012;5.648;2022-10-31T10:55:23;21.63;;;14.53;;
32633;SDS011;19043;51.012;5.648;2022-10-31T11:00:30;34.90;;;22.58;;
32633;SDS011;19043;51.012;5.648;2022-10-31T11:02:55;32.38;;;20.73;;
32633;SDS011;19043;51.012;5.648;2022-10-31T11:05:30;28.70;;;21.02;;
32633;SDS011;19043;51.012;5.648;2022-10-31T11:07:58;35.95;;;22.30;;
32633;SDS011;19043;51.012;5.648;2022-10-31T11:10:23;34.33;;;22.70;;
32633;SDS011;19043;51.012;5.648;2022-10-31T11:16:05;31.95;;;20.13;;
32633;SDS011;19043;51.012;5.648;2022-10-31T11:18:34;32.55;;;18.70;;
32633;SDS011;19043;51.012;5.648;2022-10-31T11:21:02;35.17;;;20.88;;
32633;SDS011;19043;51.012;5.648;2022-10-31T11:23:29;38.55;;;19.02;;
32633;SDS011;19043;51.012;5.648;2022-10-31T11:26:02;28.00;;;19.67;;
32633;SDS011;19043;51.012;5.648;2022-10-31T11:28:28;30.00;;;18.92;;
32633;SDS011;19043;51.012;5.648;2022-10-31T11:31:04;32.78;;;19.23;;
32633;SDS011;19043;51.012;5.648;2022-10-31T11:33:31;28.98;;;19.80;;
32633;SDS011;19043;51.012;5.648;2022-10-31T11:35:57;26.50;;;18.00;;
32633;SDS011;19043;51.012;5.648;2022-10-31T11:38:24;31.08;;;18.85;;
32633;SDS011;19043;51.012;5.648;2022-10-31T11:40:50;30.38;;;19.33;;
32633;SDS011;19043;51.012;5.648;2022-10-31T11:43:16;34.30;;;20.17;;
32633;SDS011;19043;51.012;5.648;2022-10-31T11:45:42;29.92;;;18.67;;
32633;SDS011;19043;51.012;5.648;2022-10-31T11:48:17;28.20;;;18.47;;
32633;SDS011;19043;51.012;5.648;2022-10-31T11:50:47;37.05;;;19.02;;
32633;SDS011;19043;51.012;5.648;2022-10-31T11:53:22;25.05;;;18.05;;
32633;SDS011;19043;51.012;5.648;2022-10-31T11:55:59;31.10;;;17.95;;
32633;SDS011;19043;51.012;5.648;2022-10-31T11:58:25;28.50;;;19.08;;
32633;SDS011;19043;51.012;5.648;2022-10-31T12:00:52;25.92;;;18.67;;
32633;SDS011;19043;51.012;5.648;2022-10-31T12:04:02;28.58;;;20.15;;
32633;SDS011;19043;51.012;5.648;2022-10-31T12:08:38;31.65;;;19.33;;
32633;SDS011;19043;51.012;5.648;2022-10-31T12:11:13;38.13;;;18.52;;
32633;SDS011;19043;51.012;5.648;2022-10-31T12:16:18;29.35;;;20.05;;
32633;SDS011;19043;51.012;5.648;2022-10-31T12:21:19;46.55;;;19.90;;
32633;SDS011;19043;51.012;5.648;2022-10-31T12:26:21;31.50;;;18.87;;
32633;SDS011;19043;51.012;5.648;2022-10-31T12:28:54;28.48;;;19.55;;
32633;SDS011;19043;51.012;5.648;2022-10-31T12:33:56;24.23;;;17.33;;
32633;SDS011;19043;51.012;5.648;2022-10-31T12:57:33;20.33;;;12.07;;
32633;SDS011;19043;51.012;5.648;2022-10-31T13:00:03;15.05;;;12.27;;
32633;SDS011;19043;51.012;5.648;2022-10-31T13:02:34;19.10;;;12.05;;
32633;SDS011;19043;51.012;5.648;2022-10-31T13:05:05;20.88;;;13.20;;
32633;SDS011;19043;51.012;5.648;2022-10-31T13:07:40;19.95;;;11.52;;
32633;SDS011;19043;51.012;5.648;2022-10-31T13:12:37;18.27;;;10.52;;
32633;SDS011;19043;51.012;5.648;2022-10-31T13:15:04;17.15;;;11.27;;
32633;SDS011;19043;51.012;5.648;2022-10-31T13:17:33;19.67;;;11.63;;
32633;SDS011;19043;51.012;5.648;2022-10-31T13:20:05;15.52;;;10.98;;
32633;SDS011;19043;51.012;5.648;2022-10-31T13:22:37;37.65;;;11.18;;
32633;SDS011;19043;51.012;5.648;2022-10-31T13:32:41;23.77;;;12.68;;
32633;SDS011;19043;51.012;5.648;2022-10-31T13:35:11;16.58;;;11.05;;
32633;SDS011;19043;51.012;5.648;2022-10-31T13:37:41;14.20;;;10.48;;
32633;SDS011;19043;51.012;5.648;2022-10-31T13:43:41;18.33;;;10.27;;
32633;SDS011;19043;51.012;5.648;2022-10-31T13:45:48;20.58;;;11.60;;
32633;SDS011;19043;51.012;5.648;2022-10-31T13:50:39;19.87;;;11.57;;
32633;SDS011;19043;51.012;5.648;2022-10-31T13:55:44;15.20;;;9.75;;
32633;SDS011;19043;51.012;5.648;2022-10-31T14:03:27;16.70;;;9.73;;
32633;SDS011;19043;51.012;5.648;2022-10-31T14:05:53;17.98;;;9.75;;
32633;SDS011;19043;51.012;5.648;2022-10-31T14:08:20;19.90;;;10.50;;
32633;SDS011;19043;51.012;5.648;2022-10-31T14:10:48;15.55;;;9.98;;
32633;SDS011;19043;51.012;5.648;2022-10-31T14:13:15;21.83;;;9.38;;
32633;SDS011;19043;51.012;5.648;2022-10-31T14:15:43;21.58;;;10.02;;
32633;SDS011;19043;51.012;5.648;2022-10-31T14:18:39;13.07;;;8.60;;
32633;SDS011;19043;51.012;5.648;2022-10-31T14:21:13;12.98;;;8.25;;
32633;SDS011;19043;51.012;5.648;2022-10-31T14:23:39;20.13;;;9.45;;
32633;SDS011;19043;51.012;5.648;2022-10-31T14:26:17;17.95;;;9.27;;
32633;SDS011;19043;51.012;5.648;2022-10-31T14:28:43;16.27;;;8.05;;
32633;SDS011;19043;51.012;5.648;2022-10-31T14:33:52;21.92;;;9.23;;
32633;SDS011;19043;51.012;5.648;2022-10-31T14:36:23;12.38;;;8.18;;
32633;SDS011;19043;51.012;5.648;2022-10-31T14:39:02;12.98;;;7.95;;
32633;SDS011;19043;51.012;5.648;2022-10-31T14:46:48;14.23;;;7.50;;
32633;SDS011;19043;51.012;5.648;2022-10-31T14:51:43;18.80;;;7.43;;
32633;SDS011;19043;51.012;5.648;2022-10-31T14:54:11;13.25;;;6.80;;
32633;SDS011;19043;51.012;5.648;2022-10-31T14:56:40;14.38;;;6.45;;
32633;SDS011;19043;51.012;5.648;2022-10-31T14:59:09;17.15;;;7.60;;
32633;SDS011;19043;51.012;5.648;2022-10-31T15:01:36;11.35;;;7.10;;
32633;SDS011;19043;51.012;5.648;2022-10-31T15:04:13;14.63;;;7.18;;
32633;SDS011;19043;51.012;5.648;2022-10-31T15:06:43;11.50;;;7.32;;
32633;SDS011;19043;51.012;5.648;2022-10-31T15:09:22;11.93;;;6.35;;
32633;SDS011;19043;51.012;5.648;2022-10-31T15:11:48;18.42;;;7.18;;
32633;SDS011;19043;51.012;5.648;2022-10-31T15:14:24;13.82;;;7.07;;
32633;SDS011;19043;51.012;5.648;2022-10-31T15:16:50;20.63;;;6.78;;
32633;SDS011;19043;51.012;5.648;2022-10-31T15:19:18;12.75;;;6.13;;
32633;SDS011;19043;51.012;5.648;2022-10-31T15:21:45;11.25;;;6.57;;
32633;SDS011;19043;51.012;5.648;2022-10-31T15:24:11;9.25;;;6.05;;
32633;SDS011;19043;51.012;5.648;2022-10-31T15:26:38;14.95;;;6.68;;
32633;SDS011;19043;51.012;5.648;2022-10-31T15:29:10;14.88;;;6.22;;
32633;SDS011;19043;51.012;5.648;2022-10-31T15:31:36;9.63;;;6.88;;
32633;SDS011;19043;51.012;5.648;2022-10-31T15:36:50;20.23;;;6.63;;
32633;SDS011;19043;51.012;5.648;2022-10-31T15:39:15;16.85;;;7.43;;
32633;SDS011;19043;51.012;5.648;2022-10-31T15:44:14;11.38;;;6.55;;
32633;SDS011;19043;51.012;5.648;2022-10-31T15:46:40;13.40;;;7.20;;
32633;SDS011;19043;51.012;5.648;2022-10-31T15:49:10;12.00;;;6.82;;
32633;SDS011;19043;51.012;5.648;2022-10-31T15:51:37;10.07;;;7.40;;
32633;SDS011;19043;51.012;5.648;2022-10-31T15:54:02;17.23;;;6.97;;
32633;SDS011;19043;51.012;5.648;2022-10-31T15:56:28;14.05;;;6.93;;
32633;SDS011;19043;51.012;5.648;2022-10-31T15:58:55;14.13;;;6.78;;
32633;SDS011;19043;51.012;5.648;2022-10-31T16:01:31;9.93;;;6.28;;
32633;SDS011;19043;51.012;5.648;2022-10-31T16:06:37;11.18;;;6.03;;
32633;SDS011;19043;51.012;5.648;2022-10-31T16:09:03;12.35;;;6.13;;
32633;SDS011;19043;51.012;5.648;2022-10-31T16:13:56;14.73;;;7.40;;
32633;SDS011;19043;51.012;5.648;2022-10-31T16:16:21;13.10;;;6.90;;
32633;SDS011;19043;51.012;5.648;2022-10-31T16:18:47;11.25;;;6.72;;
32633;SDS011;19043;51.012;5.648;2022-10-31T16:21:13;11.88;;;6.93;;
32633;SDS011;19043;51.012;5.648;2022-10-31T16:23:43;32.17;;;6.93;;
32633;SDS011;19043;51.012;5.648;2022-10-31T16:26:09;12.60;;;6.45;;
32633;SDS011;19043;51.012;5.648;2022-10-31T16:28:35;21.07;;;6.63;;
32633;SDS011;19043;51.012;5.648;2022-10-31T16:31:00;10.68;;;6.70;;
32633;SDS011;19043;51.012;5.648;2022-10-31T16:35:51;16.90;;;7.03;;
32633;SDS011;19043;51.012;5.648;2022-10-31T16:38:16;14.02;;;6.45;;